Etusivu
METAR-TAF:

METAR-TAF

Lentoasemat :

Mullan Pass Vor, Idaho, Yhdysvallat

Leveyspiiri: 47-27-15N, Pituuspiiri: 115-40-11W, korkeus merenpinnasta: 1829 m

Tämänhetkinen sää

Tämä raportti tehtiin 57 minuuttia sitten, kello 17.53 UTC
Tuuli 5 kn eri suunnista
Lämpötila 2°C
Kosteus 47%
Ilmanpaine 1016 hPa
Näkyvyys: 16.1 km
Hajanaisia pilviä 5500 ft:n korkeudessa
Pilvistä 7500 ft:n korkeudessa

METAR: KMLP 121753Z AUTO VRB05KT 10SM SCT055 OVC075 02/M08 A2999 RMK AO2 SLP122 T00171083 10022 21011 58010

Aika: 10:50 (18:50 UTC)


TAF: puuttuu

Säähavainnot ja -ennusteet yli 4000 lentoasemalta (METAR- ja TAF-raportit).

Käytössä olevat sääasemat on merkitty karttaan keltaisilla ja punaisilla pisteillä.

Aseta hiiri pisteen päälle nähdäksesi sääaseman nimen.

Klikkaa sitten nähdäksesi säähavainnot ja -ennusteet.

Kartan vaihtaminen: klikkaa mustalla rastilla varustettuja vihreitä pisteitä, niin voit zoomata sisään; viivalla varustettua vihreää pistettä, niin voit zoomata ulos tai vihreitä nuolia, niin pääset viereisille kartoille.


METAR-TAF: